Portada
METAR-TAF:

METAR-TAF

Aeroports :

Springfield-Beckley Municipal Airport

Springfield, Ohio, Estats Units d'Amèrica

latitud: 39-50N, longitud: 083-50W, altitud: 321 m

Observació

L'informe es va fer fa 20 minuts, a les 11:26 UTC
Vent 11 kt del Sud/Sud-Oest
Temperatura 22°C
Humitat 73%
Pressió 1011 hPa
Visibilitat: 16.1 km
Cel ennuvolat a una alçada de 10000 ft
tempesta a les proximitats

METAR: KSGH 221126Z AUTO 20011KT 10SM VCTS BKN100 22/17 A2985 RMK AO2 TSB20

Hora: 07:46 (11:46 UTC)


TAF: manca

Observacions i pronòstics meteorològics de més de 4000 aeroports (METAR i TAF).

Les estacions disponibles són els punts grocs i vermells al mapa.

Posi el ratolí al punt desitjat per veure el nom de l'estació.

Feu clic per veure les observacions i els pronòstics meteorològics.

Per canviar el mapa: feu clic els botons verds amb una creu de color negre per apropar; al botó verd amb un guió per allunyar la imatge; o en les fletxes verdes per a mapes adjacents.


METAR-TAF: